createdAt,value
2022-10-20T00:01:28.847Z,4.57
2022-10-20T00:03:57.032Z,5.03
2022-10-20T00:06:33.832Z,4.20
2022-10-20T00:09:05.151Z,3.92
2022-10-20T00:11:33.964Z,4.15
2022-10-20T00:14:02.945Z,4.35
2022-10-20T00:16:37.339Z,4.55
2022-10-20T00:19:05.439Z,4.78
2022-10-20T00:21:35.613Z,4.30
2022-10-20T00:24:04.378Z,3.80
2022-10-20T00:26:34.107Z,4.03
2022-10-20T00:29:04.783Z,4.20
2022-10-20T00:31:32.768Z,4.15
2022-10-20T00:33:59.752Z,4.82
2022-10-20T00:36:26.756Z,4.07
2022-10-20T00:39:03.719Z,4.40
2022-10-20T00:41:33.595Z,4.40
2022-10-20T00:44:42.138Z,4.18
2022-10-20T00:47:32.689Z,4.15
2022-10-20T00:50:16.697Z,4.30
2022-10-20T00:52:47.197Z,4.20
2022-10-20T00:55:25.384Z,3.97
2022-10-20T00:57:58.017Z,4.07
2022-10-20T01:00:27.612Z,3.78
2022-10-20T01:03:01.734Z,3.90
2022-10-20T01:05:28.758Z,4.38
2022-10-20T01:07:55.502Z,3.60
2022-10-20T01:10:36.659Z,4.20
2022-10-20T01:13:35.586Z,4.03
2022-10-20T01:16:54.251Z,3.83
2022-10-20T01:19:58.395Z,3.53
2022-10-20T01:22:55.109Z,3.63
2022-10-20T01:26:29.758Z,3.65
2022-10-20T01:29:21.975Z,3.90
2022-10-20T01:32:13.573Z,3.70
2022-10-20T01:35:01.956Z,3.53
2022-10-20T01:37:56.556Z,3.83
2022-10-20T01:40:31.411Z,3.45
2022-10-20T01:43:10.346Z,3.42
2022-10-20T01:45:45.819Z,3.30
2022-10-20T01:48:20.113Z,4.03
2022-10-20T01:50:50.106Z,3.70
2022-10-20T01:53:17.798Z,3.97
2022-10-20T01:55:44.885Z,3.88
2022-10-20T01:59:08.416Z,3.40
2022-10-20T02:02:15.882Z,4.18
2022-10-20T02:05:25.918Z,3.50
2022-10-20T02:08:31.438Z,3.30
2022-10-20T02:11:05.539Z,3.55
2022-10-20T02:13:39.194Z,4.63
2022-10-20T02:16:27.581Z,3.50
2022-10-20T02:21:50.108Z,4.18
2022-10-20T02:24:26.158Z,3.70
2022-10-20T02:27:04.106Z,4.10
2022-10-20T02:29:44.904Z,3.67
2022-10-20T02:32:16.365Z,4.05
2022-10-20T02:34:44.424Z,3.85
2022-10-20T02:39:38.368Z,4.22
2022-10-20T02:42:09.046Z,4.28
2022-10-20T02:44:36.459Z,3.80
2022-10-20T02:47:03.555Z,3.67
2022-10-20T02:49:30.651Z,4.43
2022-10-20T02:51:57.644Z,3.97
2022-10-20T02:54:24.650Z,3.80
2022-10-20T02:56:51.570Z,3.35
2022-10-20T02:59:18.431Z,3.60
2022-10-20T03:01:45.358Z,3.78
2022-10-20T03:04:13.786Z,3.78
2022-10-20T03:06:41.919Z,3.20
2022-10-20T03:09:09.020Z,3.95
2022-10-20T03:11:36.124Z,3.73
2022-10-20T03:14:03.590Z,4.73
2022-10-20T03:16:30.452Z,4.25
2022-10-20T03:19:00.276Z,4.07
2022-10-20T03:21:31.170Z,4.03
2022-10-20T03:23:57.973Z,4.20
2022-10-20T03:26:24.930Z,4.10
2022-10-20T03:28:51.755Z,3.90
2022-10-20T03:31:19.013Z,4.30
2022-10-20T03:33:45.811Z,4.88
2022-10-20T03:36:12.844Z,4.50
2022-10-20T03:38:43.351Z,4.37
2022-10-20T03:41:11.777Z,4.22
2022-10-20T03:43:42.629Z,4.07
2022-10-20T03:46:12.072Z,4.30
2022-10-20T03:48:41.208Z,4.82
2022-10-20T03:51:09.713Z,4.00
2022-10-20T03:53:36.514Z,4.65
2022-10-20T03:56:17.632Z,4.40
2022-10-20T03:58:45.451Z,4.63
2022-10-20T04:01:19.149Z,4.15
2022-10-20T04:03:46.074Z,4.90
2022-10-20T04:06:15.485Z,4.80
2022-10-20T04:08:42.785Z,4.90
2022-10-20T04:11:10.118Z,4.82
2022-10-20T04:13:37.052Z,4.25
2022-10-20T04:16:04.045Z,4.50
2022-10-20T04:18:32.124Z,5.00
2022-10-20T04:23:26.316Z,5.13
2022-10-20T04:25:53.123Z,5.68
2022-10-20T04:28:21.131Z,5.15
2022-10-20T04:30:49.276Z,5.30
2022-10-20T04:33:16.995Z,5.25
2022-10-20T04:35:44.335Z,5.03
2022-10-20T04:38:11.289Z,5.88
2022-10-20T04:40:38.089Z,6.03
2022-10-20T04:43:05.006Z,6.50
2022-10-20T04:45:31.813Z,5.95
2022-10-20T04:47:58.887Z,5.95
2022-10-20T04:50:25.840Z,5.80
2022-10-20T04:52:52.561Z,5.82
2022-10-20T04:55:20.389Z,6.07
2022-10-20T04:57:47.226Z,5.90
2022-10-20T05:00:15.176Z,6.18
2022-10-20T05:05:09.854Z,6.05
2022-10-20T05:07:36.998Z,6.45
2022-10-20T05:10:05.379Z,6.90
2022-10-20T05:12:32.185Z,6.03
2022-10-20T05:14:58.931Z,6.65
2022-10-20T05:17:26.078Z,6.25
2022-10-20T05:19:52.826Z,5.57
2022-10-20T05:22:19.726Z,6.70
2022-10-20T05:24:46.523Z,6.30
2022-10-20T05:27:13.562Z,6.75
2022-10-20T05:29:40.323Z,7.07
2022-10-20T05:32:07.135Z,7.50
2022-10-20T05:34:33.879Z,6.90
2022-10-20T05:37:00.733Z,7.03
2022-10-20T05:39:27.647Z,7.93
2022-10-20T05:41:54.407Z,7.10
2022-10-20T05:44:21.457Z,6.95
2022-10-20T05:46:48.160Z,7.50
2022-10-20T05:49:17.731Z,7.35
2022-10-20T05:51:47.233Z,8.05
2022-10-20T05:54:15.642Z,7.47
2022-10-20T05:56:42.430Z,7.68
2022-10-20T05:59:11.327Z,8.18
2022-10-20T06:01:50.467Z,8.45
2022-10-20T06:04:23.903Z,8.05
2022-10-20T06:06:53.012Z,8.30
2022-10-20T06:09:24.424Z,9.13
2022-10-20T06:11:53.123Z,8.30
2022-10-20T06:14:25.819Z,9.20
2022-10-20T06:16:55.260Z,8.50
2022-10-20T06:19:24.940Z,9.02
2022-10-20T06:21:53.336Z,7.95
2022-10-20T06:24:21.092Z,7.90
2022-10-20T06:26:48.065Z,8.70
2022-10-20T06:29:20.468Z,8.52
2022-10-20T06:31:51.603Z,7.38
2022-10-20T06:34:25.898Z,8.68
2022-10-20T06:36:53.107Z,8.70
2022-10-20T06:39:25.097Z,9.88
2022-10-20T06:41:55.260Z,9.05
2022-10-20T06:44:24.659Z,8.70
2022-10-20T06:46:54.899Z,8.55
2022-10-20T06:49:23.551Z,8.90
2022-10-20T06:51:50.796Z,8.60
2022-10-20T06:54:18.773Z,9.30
2022-10-20T06:56:46.931Z,9.52
2022-10-20T06:59:13.860Z,8.93
2022-10-20T07:01:40.991Z,8.88
2022-10-20T07:04:15.888Z,8.77
2022-10-20T07:06:47.045Z,9.20
2022-10-20T07:09:20.982Z,8.40
2022-10-20T07:11:53.184Z,8.98
2022-10-20T07:14:21.048Z,10.25
2022-10-20T07:16:48.198Z,9.18
2022-10-20T07:19:15.240Z,9.17
2022-10-20T07:21:45.594Z,9.90
2022-10-20T07:24:13.111Z,9.60
2022-10-20T07:26:42.458Z,8.80
2022-10-20T07:29:12.789Z,9.77
2022-10-20T07:31:45.469Z,9.85
2022-10-20T07:34:31.222Z,9.80
2022-10-20T07:36:58.984Z,9.77
2022-10-20T07:39:27.681Z,9.82
2022-10-20T07:41:54.647Z,9.90
2022-10-20T07:44:21.685Z,9.73
2022-10-20T07:46:48.696Z,9.68
2022-10-20T07:52:02.470Z,8.98
2022-10-20T07:54:29.281Z,9.95
2022-10-20T07:56:56.016Z,9.45
2022-10-20T07:59:22.948Z,9.63
2022-10-20T08:01:49.884Z,9.30
2022-10-20T08:04:16.672Z,9.63
2022-10-20T08:06:45.307Z,9.02
2022-10-20T08:09:12.057Z,8.40
2022-10-20T08:11:39.359Z,9.30
2022-10-20T08:14:06.272Z,8.95
2022-10-20T08:16:33.574Z,10.68
2022-10-20T08:19:02.410Z,8.18
2022-10-20T08:21:29.155Z,7.93
2022-10-20T08:23:56.198Z,8.32
2022-10-20T08:26:27.550Z,7.53
2022-10-20T08:28:55.899Z,8.43
2022-10-20T08:31:23.654Z,7.63
2022-10-20T08:33:53.092Z,7.80
2022-10-20T08:36:21.649Z,7.55
2022-10-20T08:38:49.154Z,7.65
2022-10-20T08:41:43.460Z,7.20
2022-10-20T08:44:31.657Z,7.30
2022-10-20T08:47:05.650Z,7.53
2022-10-20T08:49:35.825Z,6.57
2022-10-20T08:52:03.833Z,6.72
2022-10-20T08:57:02.019Z,7.03
2022-10-20T08:59:39.816Z,7.97
2022-10-20T09:02:17.527Z,7.18
2022-10-20T09:05:00.609Z,7.50
2022-10-20T09:07:40.186Z,7.50
2022-10-20T09:10:21.005Z,7.75
2022-10-20T09:12:51.273Z,7.18
2022-10-20T09:15:21.520Z,7.13
2022-10-20T09:18:04.256Z,7.13
2022-10-20T09:20:45.815Z,7.40
2022-10-20T09:23:40.753Z,6.38
2022-10-20T09:26:30.813Z,6.45
2022-10-20T09:31:53.379Z,6.32
2022-10-20T09:34:35.382Z,7.28
2022-10-20T09:37:19.499Z,6.43
2022-10-20T09:39:58.891Z,6.13
2022-10-20T09:42:36.889Z,5.85
2022-10-20T09:45:23.008Z,6.38
2022-10-20T09:48:02.728Z,6.00
2022-10-20T09:50:40.735Z,6.10
2022-10-20T09:53:24.969Z,5.53
2022-10-20T09:55:52.627Z,5.35
2022-10-20T09:58:31.260Z,5.85
2022-10-20T10:03:45.210Z,4.72
2022-10-20T10:06:39.117Z,4.97
2022-10-20T10:09:38.112Z,5.65
2022-10-20T10:12:15.068Z,4.93
2022-10-20T10:15:04.435Z,5.20
2022-10-20T10:20:10.148Z,4.47
2022-10-20T10:22:38.559Z,5.25
2022-10-20T10:25:18.064Z,4.28
2022-10-20T10:28:22.702Z,5.40
2022-10-20T10:30:54.951Z,4.18
2022-10-20T10:33:29.276Z,4.57
2022-10-20T10:35:57.912Z,4.65
2022-10-20T10:38:24.758Z,4.18
2022-10-20T10:41:39.363Z,4.25
2022-10-20T10:44:27.568Z,3.50
2022-10-20T10:47:45.117Z,4.32
2022-10-20T10:50:56.211Z,3.60
2022-10-20T10:54:39.257Z,3.60
2022-10-20T10:57:53.939Z,3.53
2022-10-20T11:00:53.602Z,3.20
2022-10-20T11:03:37.585Z,4.07
2022-10-20T11:06:42.658Z,3.55
2022-10-20T11:09:34.837Z,3.83
2022-10-20T11:12:45.073Z,4.20
2022-10-20T11:15:50.592Z,3.63
2022-10-20T11:19:12.967Z,3.40
2022-10-20T11:22:51.582Z,3.30
2022-10-20T11:25:44.967Z,3.08
2022-10-20T11:28:44.550Z,3.28
2022-10-20T11:31:57.701Z,3.47
2022-10-20T11:34:52.613Z,3.72
2022-10-20T11:37:41.842Z,3.70
2022-10-20T11:43:12.884Z,3.78
2022-10-20T11:46:00.258Z,3.40
2022-10-20T11:48:44.793Z,3.30
2022-10-20T11:52:04.766Z,3.38
2022-10-20T11:54:59.686Z,3.40
2022-10-20T11:57:52.263Z,3.38
2022-10-20T12:01:06.173Z,3.38
2022-10-20T12:04:06.114Z,3.67
2022-10-20T12:10:29.324Z,3.75
2022-10-20T12:13:39.057Z,3.05
2022-10-20T12:16:06.153Z,3.40
2022-10-20T12:18:37.055Z,3.73
2022-10-20T12:21:10.591Z,3.50
2022-10-20T12:23:43.532Z,3.50
2022-10-20T12:27:09.797Z,3.35
2022-10-20T12:29:36.511Z,3.70
2022-10-20T12:32:24.040Z,3.90
2022-10-20T12:35:24.015Z,4.07
2022-10-20T12:40:49.267Z,3.60
2022-10-20T12:44:06.636Z,3.40
2022-10-20T12:46:53.475Z,3.63
2022-10-20T12:49:39.355Z,3.67
2022-10-20T12:52:22.069Z,3.60
2022-10-20T12:55:38.242Z,3.72
2022-10-20T12:58:17.064Z,3.00
2022-10-20T13:00:46.569Z,3.78
2022-10-20T13:03:31.849Z,3.60
2022-10-20T13:06:27.825Z,3.42
2022-10-20T13:09:03.869Z,2.97
2022-10-20T13:11:40.828Z,2.78
2022-10-20T13:14:19.150Z,3.28
2022-10-20T13:17:24.108Z,3.20
2022-10-20T13:20:18.636Z,2.72
2022-10-20T13:22:55.209Z,3.42
2022-10-20T13:25:48.869Z,3.85
2022-10-20T13:28:28.625Z,3.30
2022-10-20T13:31:15.341Z,3.15
2022-10-20T13:34:39.223Z,2.75
2022-10-20T13:37:25.777Z,2.60
2022-10-20T13:40:26.704Z,2.40
2022-10-20T13:43:20.615Z,2.65
2022-10-20T13:45:50.291Z,3.47
2022-10-20T13:49:09.474Z,3.13
2022-10-20T13:51:51.117Z,2.88
2022-10-20T13:54:38.823Z,2.40
2022-10-20T13:57:21.607Z,3.00
2022-10-20T14:00:17.334Z,2.92
2022-10-20T14:03:04.959Z,3.03
2022-10-20T14:05:39.504Z,3.20
2022-10-20T14:08:15.110Z,3.13
2022-10-20T14:11:05.278Z,3.17
2022-10-20T14:13:36.914Z,3.15
2022-10-20T14:16:21.410Z,3.35
2022-10-20T14:19:11.403Z,2.95
2022-10-20T14:21:47.083Z,3.30
2022-10-20T14:24:35.170Z,2.75
2022-10-20T14:27:21.338Z,3.13
2022-10-20T14:29:54.236Z,3.03
2022-10-20T14:32:30.819Z,3.83
2022-10-20T14:35:18.968Z,2.92
2022-10-20T14:38:06.363Z,3.28
2022-10-20T14:43:23.441Z,3.55
2022-10-20T14:46:03.851Z,2.83
2022-10-20T14:48:50.220Z,3.47
2022-10-20T14:51:45.407Z,2.88
2022-10-20T14:54:37.346Z,3.13
2022-10-20T14:57:10.448Z,3.47
2022-10-20T15:00:22.326Z,3.13
2022-10-20T15:02:57.033Z,3.28
2022-10-20T15:05:26.683Z,3.20
2022-10-20T15:07:57.240Z,3.65
2022-10-20T15:10:30.357Z,3.80
2022-10-20T15:13:00.625Z,3.60
2022-10-20T15:15:39.255Z,4.20
2022-10-20T15:20:50.238Z,3.35
2022-10-20T15:23:29.484Z,4.20
2022-10-20T15:26:06.714Z,3.88
2022-10-20T15:28:50.617Z,3.72
2022-10-20T15:31:30.089Z,3.92
2022-10-20T15:33:59.767Z,4.80
2022-10-20T15:36:41.854Z,4.13
2022-10-20T15:39:13.015Z,4.10
2022-10-20T15:41:43.806Z,4.70
2022-10-20T15:44:22.342Z,4.65
2022-10-20T15:46:53.696Z,4.93
2022-10-20T15:49:24.012Z,5.22
2022-10-20T15:51:53.883Z,4.78
2022-10-20T15:54:23.669Z,4.53
2022-10-20T15:56:53.496Z,4.82
2022-10-20T15:59:23.296Z,4.97
2022-10-20T16:01:53.253Z,5.32
2022-10-20T16:04:26.684Z,4.93
2022-10-20T16:06:57.905Z,4.55
2022-10-20T16:09:31.021Z,4.55
2022-10-20T16:12:00.377Z,5.53
2022-10-20T16:14:30.098Z,4.70
2022-10-20T16:16:59.750Z,5.13
2022-10-20T16:19:29.665Z,4.90
2022-10-20T16:21:59.624Z,5.15
2022-10-20T16:24:29.406Z,5.35
2022-10-20T16:26:59.323Z,5.18
2022-10-20T16:29:29.257Z,6.28
2022-10-20T16:31:59.952Z,6.15
2022-10-20T16:34:30.369Z,6.72
2022-10-20T16:37:00.097Z,5.65
2022-10-20T16:39:30.058Z,6.82
2022-10-20T16:41:59.818Z,6.70
2022-10-20T16:44:30.783Z,6.88
2022-10-20T16:47:00.699Z,6.35
2022-10-20T16:49:30.600Z,6.47
2022-10-20T16:52:01.713Z,7.10
2022-10-20T16:54:31.754Z,7.70
2022-10-20T16:57:01.949Z,7.78
2022-10-20T16:59:31.710Z,7.53
2022-10-20T17:02:01.495Z,7.38
2022-10-20T17:04:31.909Z,7.55
2022-10-20T17:07:01.418Z,7.93
2022-10-20T17:09:31.114Z,7.20
2022-10-20T17:12:00.897Z,7.15
2022-10-20T17:14:30.695Z,7.65
2022-10-20T17:17:00.508Z,7.15
2022-10-20T17:19:30.556Z,7.88
2022-10-20T17:22:00.607Z,7.90
2022-10-20T17:24:30.526Z,7.40
2022-10-20T17:27:00.440Z,7.93
2022-10-20T17:29:30.015Z,7.35
2022-10-20T17:31:59.816Z,7.30
2022-10-20T17:34:29.515Z,8.18
2022-10-20T17:36:59.408Z,7.47
2022-10-20T17:39:29.209Z,7.63
2022-10-20T17:41:59.064Z,8.27
2022-10-20T17:44:28.852Z,7.90
2022-10-20T17:46:59.262Z,7.60
2022-10-20T17:49:29.057Z,7.63
2022-10-20T17:51:58.879Z,8.02
2022-10-20T17:54:28.650Z,8.02
2022-10-20T17:56:58.506Z,7.07
2022-10-20T17:59:32.144Z,7.82
2022-10-20T18:02:10.785Z,7.65
2022-10-20T18:04:40.769Z,7.93
2022-10-20T18:07:10.577Z,7.82
2022-10-20T18:09:37.558Z,8.43
2022-10-20T18:12:11.315Z,8.77
2022-10-20T18:14:40.599Z,7.60
2022-10-20T18:17:09.807Z,7.32
2022-10-20T18:19:37.266Z,7.85
2022-10-20T18:22:06.927Z,7.50
2022-10-20T18:24:37.393Z,7.53
2022-10-20T18:27:07.141Z,7.43
2022-10-20T18:29:37.556Z,8.13
2022-10-20T18:32:07.462Z,7.85
2022-10-20T18:34:38.662Z,7.13
2022-10-20T18:37:08.410Z,7.65
2022-10-20T18:39:38.330Z,7.45
2022-10-20T18:42:12.331Z,7.10
2022-10-20T18:44:42.389Z,7.40
2022-10-20T18:47:12.250Z,6.80
2022-10-20T18:49:44.955Z,7.70
2022-10-20T18:52:11.913Z,8.13
2022-10-20T18:54:41.693Z,8.07
2022-10-20T18:57:11.336Z,7.40
2022-10-20T18:59:44.137Z,8.00
2022-10-20T19:02:11.753Z,8.45
2022-10-20T19:04:41.715Z,7.47
2022-10-20T19:07:11.545Z,7.20
2022-10-20T19:09:41.332Z,8.00
2022-10-20T19:12:14.799Z,7.72
2022-10-20T19:14:44.633Z,7.47
2022-10-20T19:17:14.466Z,7.90
2022-10-20T19:19:44.781Z,7.38
2022-10-20T19:22:14.566Z,7.63
2022-10-20T19:24:44.499Z,7.82
2022-10-20T19:27:26.062Z,7.82
2022-10-20T19:29:56.326Z,7.50
2022-10-20T19:32:26.259Z,9.10
2022-10-20T19:34:56.040Z,7.68
2022-10-20T19:37:25.796Z,8.55
2022-10-20T19:39:55.757Z,8.30
2022-10-20T19:42:25.762Z,7.80
2022-10-20T19:44:55.770Z,8.20
2022-10-20T19:47:25.566Z,8.13
2022-10-20T19:49:55.432Z,7.07
2022-10-20T19:52:25.076Z,7.40
2022-10-20T19:54:54.950Z,7.50
2022-10-20T19:57:24.694Z,6.90
2022-10-20T19:59:54.398Z,8.07
2022-10-20T20:02:24.142Z,7.90
2022-10-20T20:04:53.962Z,6.60
2022-10-20T20:07:23.849Z,8.48
2022-10-20T20:09:53.718Z,7.15
2022-10-20T20:12:23.817Z,8.43
2022-10-20T20:14:53.358Z,8.35
2022-10-20T20:17:20.253Z,7.90
2022-10-20T20:19:47.420Z,7.85
2022-10-20T20:22:17.468Z,7.10
2022-10-20T20:24:47.263Z,7.65
2022-10-20T20:27:16.969Z,8.35
2022-10-20T20:29:46.738Z,8.02
2022-10-20T20:32:17.736Z,7.97
2022-10-20T20:34:46.819Z,7.78
2022-10-20T20:37:16.661Z,8.35
2022-10-20T20:39:46.437Z,8.25
2022-10-20T20:42:19.641Z,8.43
2022-10-20T20:44:51.647Z,7.78
2022-10-20T20:47:19.128Z,8.40
2022-10-20T20:49:46.010Z,8.00
2022-10-20T20:52:15.752Z,8.85
2022-10-20T20:54:45.599Z,9.40
2022-10-20T20:57:15.292Z,7.78
2022-10-20T20:59:45.019Z,8.25
2022-10-20T21:02:16.149Z,7.85
2022-10-20T21:04:45.859Z,7.88
2022-10-20T21:07:15.554Z,8.25
2022-10-20T21:09:45.273Z,8.25
2022-10-20T21:12:15.199Z,8.35
2022-10-20T21:14:48.792Z,8.35
2022-10-20T21:17:16.733Z,8.52
2022-10-20T21:19:46.587Z,9.93
2022-10-20T21:22:16.211Z,8.15
2022-10-20T21:24:45.940Z,8.95
2022-10-20T21:27:15.611Z,7.95
2022-10-20T21:29:46.400Z,8.68
2022-10-20T21:32:18.466Z,8.23
2022-10-20T21:34:47.883Z,8.63
2022-10-20T21:37:17.709Z,9.07
2022-10-20T21:39:47.227Z,7.97
2022-10-20T21:42:17.159Z,8.00
2022-10-20T21:44:46.968Z,8.18
2022-10-20T21:47:16.711Z,7.35
2022-10-20T21:49:46.586Z,8.15
2022-10-20T21:52:16.461Z,7.90
2022-10-20T21:54:46.143Z,8.10
2022-10-20T21:57:15.961Z,7.85
2022-10-20T21:59:50.480Z,7.45
2022-10-20T22:02:19.646Z,7.00
2022-10-20T22:04:49.389Z,7.88
2022-10-20T22:07:19.168Z,7.55
2022-10-20T22:09:48.977Z,7.57
2022-10-20T22:12:18.956Z,8.15
2022-10-20T22:14:48.729Z,8.32
2022-10-20T22:17:18.539Z,8.85
2022-10-20T22:19:50.347Z,7.72
2022-10-20T22:22:19.572Z,7.50
2022-10-20T22:24:49.373Z,8.02
2022-10-20T22:27:31.330Z,7.68
2022-10-20T22:30:10.364Z,8.82
2022-10-20T22:32:40.366Z,7.65
2022-10-20T22:35:10.382Z,8.90
2022-10-20T22:37:39.999Z,8.27
2022-10-20T22:40:10.343Z,9.05
2022-10-20T22:42:40.329Z,8.27
2022-10-20T22:45:11.506Z,8.95
2022-10-20T22:47:41.180Z,8.85
2022-10-20T22:50:10.815Z,7.88
2022-10-20T22:52:40.939Z,8.82
2022-10-20T22:55:10.812Z,8.00
2022-10-20T22:57:40.577Z,7.47
2022-10-20T23:00:13.976Z,8.52
2022-10-20T23:02:41.780Z,8.93
2022-10-20T23:05:12.413Z,8.88
2022-10-20T23:07:42.125Z,8.05
2022-10-20T23:10:12.064Z,9.88
2022-10-20T23:12:42.017Z,8.95
2022-10-20T23:15:11.772Z,8.75
2022-10-20T23:17:41.541Z,8.55
2022-10-20T23:20:11.955Z,9.27
2022-10-20T23:22:41.841Z,9.20
2022-10-20T23:25:11.653Z,8.20
2022-10-20T23:27:41.352Z,9.32
2022-10-20T23:30:11.471Z,9.07
2022-10-20T23:32:41.101Z,8.95
2022-10-20T23:35:10.751Z,9.45
2022-10-20T23:37:40.764Z,8.55
2022-10-20T23:40:11.792Z,9.45
2022-10-20T23:42:41.380Z,9.30
2022-10-20T23:45:11.665Z,9.43
2022-10-20T23:47:41.009Z,9.25
2022-10-20T23:50:11.180Z,9.02
2022-10-20T23:52:40.639Z,8.38
2022-10-20T23:55:13.196Z,9.43
2022-10-20T23:57:45.271Z,8.88
